Time;durP1;ratioP1;P1;durP2;ratioP2;P2;SDS_P1;SDS_P2;PMS_P1;PMS_P2;Temp;Humidity;BMP_temperature;BMP_pressure;BME280_temperature;BME280_humidity;BME280_pressure;Samples;Min_cycle;Max_cycle;Signal;HPM_P1;HPM_P2
2022/12/30 00:01:07;;;;;;;0.60;0.20;;;6.50;99.90;;;;;;5092316;28;20115;-70
2022/12/30 00:03:33;;;;;;;2.53;0.20;;;6.50;99.90;;;;;;5088363;28;20024;-70
2022/12/30 00:05:59;;;;;;;2.30;0.82;;;6.50;99.90;;;;;;5092403;28;20436;-70
2022/12/30 00:11:09;;;;;;;0.88;0.30;;;6.60;99.90;;;;;;5091667;28;20055;-70
2022/12/30 00:33:25;;;;;;;1.27;0.20;;;6.50;99.90;;;;;;5091033;28;20558;-70
2022/12/30 00:35:50;;;;;;;1.85;0.35;;;6.50;99.90;;;;;;5091190;28;20041;-69
2022/12/30 00:38:16;;;;;;;0.55;0.30;;;6.50;99.90;;;;;;5089906;28;20024;-70
2022/12/30 00:43:07;;;;;;;0.70;0.35;;;6.40;99.90;;;;;;5090392;28;20028;-70
2022/12/30 00:43:27;;;;;;;0.70;0.45;;;6.50;99.90;;;;;;5086990;28;20495;-69
2022/12/30 00:45:53;;;;;;;0.73;0.30;;;6.50;99.90;;;;;;5091292;28;20024;-69
2022/12/30 00:56:34;;;;;;;0.45;0.30;;;6.50;99.90;;;;;;5090706;28;20030;-69
2022/12/30 00:58:59;;;;;;;1.73;0.38;;;6.60;99.90;;;;;;5087532;28;20024;-70
2022/12/30 01:01:25;;;;;;;1.23;0.30;;;6.50;99.90;;;;;;5089956;28;20024;-70
2022/12/30 01:03:50;;;;;;;1.38;0.30;;;6.50;99.90;;;;;;5089897;28;20027;-71
2022/12/30 01:06:16;;;;;;;1.40;0.40;;;6.50;99.90;;;;;;5090976;28;20024;-70
2022/12/30 01:08:41;;;;;;;0.60;0.35;;;6.50;99.90;;;;;;5089399;28;20024;-70
2022/12/30 01:11:08;;;;;;;0.65;0.40;;;6.50;99.90;;;;;;5091071;28;20028;-70
2022/12/30 01:13:35;;;;;;;2.85;0.63;;;6.50;99.90;;;;;;5071519;28;20074;-70
2022/12/30 01:16:09;;;;;;;0.30;0.30;;;6.40;99.90;;;;;;5088137;28;20052;-70
2022/12/30 01:18:35;;;;;;;0.52;0.40;;;6.40;99.90;;;;;;5088990;28;20020;-70
2022/12/30 01:21:01;;;;;;;0.90;0.40;;;6.40;99.90;;;;;;5090813;28;20107;-70
2022/12/30 01:23:27;;;;;;;1.73;0.40;;;6.40;99.90;;;;;;5089233;28;20534;-69
2022/12/30 01:25:52;;;;;;;1.60;0.63;;;6.40;99.90;;;;;;5090253;28;20016;-70
2022/12/30 01:28:18;;;;;;;1.40;0.52;;;6.30;99.90;;;;;;5087942;28;20028;-69
2022/12/30 01:30:44;;;;;;;1.05;0.63;;;6.40;99.90;;;;;;5089991;28;20032;-70
2022/12/30 01:33:09;;;;;;;2.45;0.70;;;6.30;99.90;;;;;;5087577;28;20024;-70
2022/12/30 01:35:35;;;;;;;0.35;0.28;;;6.20;99.90;;;;;;5089829;28;20066;-69
2022/12/30 01:38:00;;;;;;;2.38;0.50;;;6.30;99.90;;;;;;5091074;28;20024;-69
2022/12/30 01:40:26;;;;;;;0.70;0.35;;;6.30;99.90;;;;;;5082820;28;20436;-70
2022/12/30 01:42:51;;;;;;;1.02;0.50;;;6.30;99.90;;;;;;5090974;28;20093;-70
2022/12/30 01:45:23;;;;;;;1.52;0.60;;;6.30;99.90;;;;;;5091825;28;20060;-70
2022/12/30 01:48:09;;;;;;;2.35;0.90;;;6.40;99.90;;;;;;5090625;28;20099;-70
2022/12/30 01:50:47;;;;;;;1.77;1.25;;;6.30;99.90;;;;;;5080892;28;20024;-70
2022/12/30 01:53:19;;;;;;;1.38;0.63;;;6.30;99.90;;;;;;5091502;28;20059;-69
2022/12/30 01:55:57;;;;;;;3.88;0.45;;;6.30;99.90;;;;;;5090159;28;20035;-70
2022/12/30 01:58:33;;;;;;;2.50;0.28;;;6.30;99.90;;;;;;5084497;28;20061;-70
2022/12/30 02:00:59;;;;;;;0.93;0.20;;;6.20;99.90;;;;;;5091639;28;20028;-69
2022/12/30 02:03:33;;;;;;;0.47;0.40;;;6.30;99.90;;;;;;5090705;28;20034;-69
2022/12/30 02:05:59;;;;;;;0.32;0.28;;;6.20;99.90;;;;;;5090911;28;20390;-69
2022/12/30 02:08:27;;;;;;;1.15;0.45;;;6.20;99.90;;;;;;5089120;28;20081;-70
2022/12/30 02:10:55;;;;;;;0.95;0.30;;;6.10;99.90;;;;;;5090763;28;20107;-70
2022/12/30 02:13:21;;;;;;;0.50;0.20;;;6.10;99.90;;;;;;5090858;28;20034;-69
2022/12/30 02:15:53;;;;;;;0.88;0.20;;;6.00;99.90;;;;;;5090568;28;20111;-70
2022/12/30 02:18:38;;;;;;;2.10;0.30;;;6.00;99.90;;;;;;5087293;28;20123;-70
2022/12/30 02:21:15;;;;;;;1.85;0.40;;;6.00;99.90;;;;;;5091669;28;20024;-70
2022/12/30 02:23:47;;;;;;;1.67;0.22;;;6.00;99.90;;;;;;5086863;28;20093;-69
2022/12/30 02:26:43;;;;;;;0.85;0.20;;;6.00;99.90;;;;;;5090526;28;20065;-69
2022/12/30 02:29:30;;;;;;;1.02;0.30;;;6.00;99.90;;;;;;5082889;28;20032;-69
2022/12/30 02:32:10;;;;;;;0.40;0.30;;;6.00;99.90;;;;;;5091074;28;20161;-70
2022/12/30 02:34:41;;;;;;;;;;;6.00;99.90;;;;;;5090772;28;20063;-70
2022/12/30 02:37:33;;;;;;;1.75;0.40;;;5.90;99.90;;;;;;5091200;28;19912;-71
2022/12/30 02:40:14;;;;;;;1.55;0.43;;;5.90;99.90;;;;;;5079696;28;20036;-70
2022/12/30 02:45:38;;;;;;;1.05;0.50;;;5.70;99.90;;;;;;5089810;28;20035;-70
2022/12/30 02:48:13;;;;;;;0.73;0.50;;;5.70;99.90;;;;;;5090951;28;20457;-70
2022/12/30 02:53:28;;;;;;;2.75;0.40;;;5.70;99.90;;;;;;5094673;28;20035;-70
2022/12/30 02:55:55;;;;;;;0.32;0.20;;;5.70;99.90;;;;;;5094808;28;20039;-70
2022/12/30 02:58:22;;;;;;;0.68;0.50;;;;;;;;;;5091842;28;20031;-70
2022/12/30 03:04:03;;;;;;;2.45;0.35;;;;;;;;;;5093393;28;20035;-69
2022/12/30 03:06:55;;;;;;;1.08;0.20;;;;;;;;;;5086355;28;20100;-70
2022/12/30 03:12:48;;;;;;;2.17;0.50;;;5.30;99.90;;;;;;5082560;28;20054;-70
2022/12/30 03:15:21;;;;;;;0.45;0.28;;;5.20;99.90;;;;;;5092767;28;20032;-69
2022/12/30 03:17:48;;;;;;;0.20;0.20;;;5.20;99.90;;;;;;5093282;28;20861;-70
2022/12/30 03:20:17;;;;;;;0.85;0.20;;;5.20;99.90;;;;;;5094574;28;20039;-70
2022/12/30 03:28:18;;;;;;;1.17;0.40;;;5.00;99.90;;;;;;5090591;28;20026;-70
2022/12/30 03:30:49;;;;;;;1.02;0.50;;;4.90;99.90;;;;;;5093648;28;20450;-70
2022/12/30 03:33:15;;;;;;;0.93;0.40;;;4.80;99.90;;;;;;5088295;28;20047;-69
2022/12/30 03:35:51;;;;;;;0.75;0.20;;;4.70;99.90;;;;;;5093335;28;20034;-70
2022/12/30 03:38:20;;;;;;;1.25;0.50;;;4.60;99.90;;;;;;5090855;28;20358;-69
2022/12/30 03:40:48;;;;;;;1.20;0.30;;;4.60;99.90;;;;;;5088340;28;20035;-70
2022/12/30 03:43:14;;;;;;;1.95;0.88;;;4.50;99.90;;;;;;5093592;28;20035;-70
2022/12/30 03:45:40;;;;;;;2.20;0.60;;;4.40;99.90;;;;;;5093141;28;20032;-70
2022/12/30 03:48:05;;;;;;;2.00;0.40;;;4.40;99.90;;;;;;5093490;28;20526;-70
2022/12/30 03:50:31;;;;;;;1.33;0.32;;;4.30;99.90;;;;;;5088765;28;20125;-70
2022/12/30 03:52:57;;;;;;;1.98;0.43;;;4.30;99.90;;;;;;5093466;28;20137;-70
2022/12/30 03:55:22;;;;;;;0.98;0.30;;;4.20;99.90;;;;;;5093674;28;20020;-69
2022/12/30 03:57:48;;;;;;;1.63;0.40;;;4.20;99.90;;;;;;5091738;28;20039;-69
2022/12/30 04:00:13;;;;;;;0.93;0.20;;;4.20;99.90;;;;;;5093690;28;20457;-70
2022/12/30 04:02:39;;;;;;;1.30;0.30;;;4.10;99.90;;;;;;5091635;28;20024;-70
2022/12/30 04:05:06;;;;;;;1.33;0.40;;;4.10;99.90;;;;;;5093439;28;20051;-70
2022/12/30 04:07:33;;;;;;;0.35;0.10;;;4.10;99.90;;;;;;5086686;28;20467;-69
2022/12/30 04:09:59;;;;;;;0.30;0.20;;;4.10;99.90;;;;;;5093475;28;20032;-70
2022/12/30 04:12:25;;;;;;;4.22;0.30;;;4.10;99.90;;;;;;5093531;28;20095;-69
2022/12/30 04:14:51;;;;;;;1.00;0.38;;;4.00;99.90;;;;;;5074172;28;20035;-69
2022/12/30 04:17:16;;;;;;;2.33;0.25;;;4.00;99.90;;;;;;5093525;28;20427;-69
2022/12/30 04:19:42;;;;;;;2.28;0.28;;;4.00;99.90;;;;;;5092729;28;20109;-69
2022/12/30 04:22:08;;;;;;;1.40;0.40;;;4.00;99.90;;;;;;5092536;28;20044;-69
2022/12/30 04:24:33;;;;;;;1.60;0.47;;;4.00;99.90;;;;;;5092013;28;20028;-69
2022/12/30 04:26:59;;;;;;;1.98;0.43;;;4.00;99.90;;;;;;5090519;28;20229;-68
2022/12/30 04:29:24;;;;;;;0.68;0.20;;;4.10;99.90;;;;;;5092734;28;20024;-70
2022/12/30 04:31:50;;;;;;;0.75;0.20;;;4.10;99.90;;;;;;5092735;28;20032;-69
2022/12/30 04:34:15;;;;;;;0.88;0.25;;;4.10;99.90;;;;;;5092471;28;20039;-70
2022/12/30 04:36:42;;;;;;;0.30;0.30;;;4.10;99.90;;;;;;5092389;28;20035;-71
2022/12/30 04:39:08;;;;;;;2.42;0.30;;;4.00;99.90;;;;;;5092164;28;20020;-70
2022/12/30 04:41:33;;;;;;;0.68;0.25;;;4.00;99.90;;;;;;5086456;28;20035;-70
2022/12/30 04:44:01;;;;;;;1.17;0.32;;;4.00;99.90;;;;;;5092255;28;20024;-70
2022/12/30 04:46:28;;;;;;;2.67;0.43;;;3.90;99.90;;;;;;5092688;28;20024;-70
2022/12/30 04:48:54;;;;;;;2.17;0.40;;;3.90;99.90;;;;;;5091877;28;20492;-70
2022/12/30 04:51:20;;;;;;;1.40;0.30;;;3.90;99.90;;;;;;5092897;28;20036;-70
2022/12/30 04:53:45;;;;;;;1.30;0.20;;;3.90;99.90;;;;;;5091575;28;20653;-69
2022/12/30 04:56:11;;;;;;;3.40;0.22;;;4.00;99.90;;;;;;5092863;28;20077;-71
2022/12/30 04:58:37;;;;;;;1.98;0.32;;;4.10;99.90;;;;;;5090143;28;20054;-67
2022/12/30 05:01:03;;;;;;;1.25;0.30;;;4.10;99.90;;;;;;5092434;28;20114;-67
2022/12/30 05:03:29;;;;;;;0.73;0.30;;;4.10;99.90;;;;;;5091056;28;20397;-68
2022/12/30 05:05:54;;;;;;;0.60;0.30;;;4.10;99.90;;;;;;5092450;28;20020;-67
2022/12/30 05:08:20;;;;;;;1.08;0.30;;;4.10;99.90;;;;;;5091789;28;20116;-67
2022/12/30 05:10:45;;;;;;;0.70;0.20;;;4.20;99.90;;;;;;5081981;28;20032;-68
2022/12/30 05:13:11;;;;;;;0.22;0.10;;;4.30;99.90;;;;;;5092257;28;20032;-68
2022/12/30 05:15:37;;;;;;;0.35;0.15;;;4.30;99.90;;;;;;5084462;28;20074;-67
2022/12/30 05:18:02;;;;;;;0.63;0.10;;;4.40;99.90;;;;;;5091791;28;20024;-67
2022/12/30 05:20:28;;;;;;;0.20;0.10;;;4.30;99.90;;;;;;5089410;28;20395;-67
2022/12/30 05:22:54;;;;;;;0.45;0.20;;;4.40;99.90;;;;;;5084808;28;20048;-67
2022/12/30 05:28:04;;;;;;;0.73;0.22;;;4.40;99.90;;;;;;5088034;28;20035;-65
2022/12/30 05:30:30;;;;;;;0.35;0.20;;;4.50;99.90;;;;;;5088751;28;20032;-67
2022/12/30 05:32:55;;;;;;;0.60;0.10;;;4.40;99.90;;;;;;5090015;28;20040;-69
2022/12/30 05:35:21;;;;;;;0.20;0.10;;;4.40;99.90;;;;;;5087393;28;20140;-68
2022/12/30 05:37:47;;;;;;;0.95;0.20;;;4.30;99.90;;;;;;5069441;28;20055;-68
2022/12/30 05:40:13;;;;;;;0.20;0.20;;;4.20;99.90;;;;;;5090671;28;20024;-68
2022/12/30 05:42:39;;;;;;;2.00;0.20;;;4.20;99.90;;;;;;5088920;28;20028;-67
2022/12/30 05:45:05;;;;;;;0.57;0.20;;;4.20;99.90;;;;;;5090363;28;20093;-68
2022/12/30 05:47:31;;;;;;;0.47;0.30;;;4.20;99.90;;;;;;5087055;28;20035;-67
2022/12/30 05:49:57;;;;;;;0.50;0.30;;;4.10;99.90;;;;;;5089181;28;20031;-68
2022/12/30 05:52:24;;;;;;;0.30;0.30;;;4.10;99.90;;;;;;5090781;28;20020;-68
2022/12/30 05:54:49;;;;;;;0.35;0.20;;;3.90;99.90;;;;;;5088934;28;20050;-68
2022/12/30 05:57:15;;;;;;;1.02;0.43;;;3.80;99.90;;;;;;5089785;28;20504;-68
2022/12/30 05:59:41;;;;;;;0.70;0.30;;;3.70;99.90;;;;;;5088960;28;20345;-68
2022/12/30 06:02:06;;;;;;;0.47;0.20;;;3.70;99.90;;;;;;5090348;28;20019;-68
2022/12/30 06:04:32;;;;;;;0.55;0.30;;;3.50;99.90;;;;;;5086214;28;20020;-68
2022/12/30 06:06:58;;;;;;;0.38;0.35;;;3.40;99.90;;;;;;5089486;28;20039;-68
2022/12/30 06:09:23;;;;;;;1.40;0.40;;;3.40;99.90;;;;;;5089664;28;20031;-68
2022/12/30 06:11:49;;;;;;;1.08;0.50;;;;;;;;;;5089478;28;20028;-67
2022/12/30 06:14:17;;;;;;;0.98;0.40;;;;;;;;;;5089156;28;20417;-68
2022/12/30 06:16:43;;;;;;;0.77;0.20;;;;;;;;;;5086616;28;20016;-66
2022/12/30 06:19:09;;;;;;;0.73;0.30;;;;;;;;;;5090789;28;20016;-68
2022/12/30 06:21:35;;;;;;;0.30;0.30;;;;;;;;;;5087051;28;20071;-67
2022/12/30 06:24:01;;;;;;;0.80;0.20;;;3.10;99.90;;;;;;5087658;28;20043;-68
2022/12/30 06:26:27;;;;;;;0.30;0.30;;;2.90;99.90;;;;;;5090111;28;20028;-67
2022/12/30 06:28:53;;;;;;;2.05;0.50;;;2.90;99.90;;;;;;5089907;28;20070;-68
2022/12/30 06:31:18;;;;;;;0.90;0.40;;;2.80;99.90;;;;;;5090740;28;20030;-68
2022/12/30 06:33:44;;;;;;;1.60;0.85;;;2.70;99.90;;;;;;5089851;28;20164;-68
2022/12/30 06:36:10;;;;;;;1.83;0.60;;;2.60;99.90;;;;;;5089923;28;20028;-68
2022/12/30 06:38:36;;;;;;;2.60;0.60;;;2.60;99.90;;;;;;5089153;28;20039;-68
2022/12/30 06:41:02;;;;;;;0.60;0.50;;;2.50;99.90;;;;;;5087460;28;20441;-67
2022/12/30 06:43:28;;;;;;;0.85;0.40;;;2.50;99.90;;;;;;5089852;28;20081;-67
2022/12/30 06:45:54;;;;;;;0.88;0.50;;;2.40;99.90;;;;;;5085255;28;20047;-67
2022/12/30 06:48:20;;;;;;;0.88;0.80;;;2.40;99.90;;;;;;5090589;28;20445;-67
2022/12/30 06:50:46;;;;;;;2.45;1.10;;;2.30;99.90;;;;;;5089649;28;20652;-67
2022/12/30 06:53:11;;;;;;;1.33;0.80;;;2.30;99.90;;;;;;5090371;28;20097;-67
2022/12/30 06:55:37;;;;;;;2.50;1.10;;;2.30;99.90;;;;;;5085351;28;20083;-67
2022/12/30 06:58:04;;;;;;;2.50;1.80;;;2.20;99.90;;;;;;5087556;28;20099;-67
2022/12/30 07:00:31;;;;;;;4.05;1.50;;;2.20;99.90;;;;;;5089663;28;20028;-67
2022/12/30 07:02:56;;;;;;;5.57;3.55;;;2.10;99.90;;;;;;5089579;28;20044;-67
2022/12/30 07:05:22;;;;;;;7.75;3.55;;;2.10;99.90;;;;;;5090149;28;20020;-67
2022/12/30 07:07:48;;;;;;;4.70;2.90;;;2.10;99.90;;;;;;5089289;28;20020;-67
2022/12/30 07:10:13;;;;;;;4.80;2.60;;;2.10;99.90;;;;;;5089934;28;20028;-67
2022/12/30 07:12:39;;;;;;;4.10;2.72;;;2.10;99.90;;;;;;5088891;28;20066;-67
2022/12/30 07:15:06;;;;;;;5.38;2.40;;;2.10;99.90;;;;;;5089870;28;20471;-67
2022/12/30 07:17:31;;;;;;;8.45;2.30;;;2.10;99.90;;;;;;5089148;28;20119;-67
2022/12/30 07:19:57;;;;;;;5.00;2.13;;;2.00;99.90;;;;;;5087159;28;20104;-67
2022/12/30 07:22:22;;;;;;;5.35;1.85;;;2.10;99.90;;;;;;5089676;28;20055;-68
2022/12/30 07:24:48;;;;;;;2.92;1.50;;;2.10;99.90;;;;;;5088926;28;20016;-67
2022/12/30 07:27:14;;;;;;;4.50;1.65;;;2.10;99.90;;;;;;5087853;28;20103;-67
2022/12/30 07:29:39;;;;;;;1.40;0.98;;;2.10;99.90;;;;;;5084856;28;20025;-67
2022/12/30 07:32:09;;;;;;;2.20;1.30;;;2.10;99.90;;;;;;5087844;28;20070;-67
2022/12/30 07:34:36;;;;;;;3.28;1.50;;;2.10;99.90;;;;;;5088334;28;20373;-67
2022/12/30 07:37:03;;;;;;;2.95;1.50;;;2.10;99.90;;;;;;5089204;28;20032;-66
2022/12/30 07:39:29;;;;;;;3.72;1.45;;;2.10;99.90;;;;;;5092037;28;20092;-68
2022/12/30 07:41:55;;;;;;;4.60;1.30;;;2.10;99.90;;;;;;5093729;28;20028;-68
2022/12/30 07:44:20;;;;;;;5.28;1.15;;;2.10;99.90;;;;;;5093199;28;20506;-68
2022/12/30 07:46:46;;;;;;;2.08;1.30;;;2.10;99.90;;;;;;5092391;28;20555;-68
2022/12/30 07:49:11;;;;;;;2.95;1.55;;;2.10;99.90;;;;;;5074587;28;20072;-67
2022/12/30 07:51:38;;;;;;;5.13;1.75;;;2.10;99.90;;;;;;5092735;28;20036;-67
2022/12/30 07:54:04;;;;;;;4.18;2.10;;;2.10;99.90;;;;;;5092820;28;20028;-67
2022/12/30 07:56:29;;;;;;;2.28;1.42;;;2.10;99.90;;;;;;5092850;28;20054;-67
2022/12/30 07:58:55;;;;;;;2.85;1.60;;;2.10;99.90;;;;;;5092130;28;20458;-68
2022/12/30 08:01:21;;;;;;;3.47;2.17;;;2.10;99.90;;;;;;5093495;28;20032;-68
2022/12/30 08:03:47;;;;;;;5.30;1.60;;;2.20;99.90;;;;;;5087265;28;20664;-68
2022/12/30 08:06:15;;;;;;;5.78;2.08;;;2.30;99.90;;;;;;5092403;28;20024;-68
2022/12/30 08:08:41;;;;;;;5.00;2.70;;;2.20;99.90;;;;;;5091801;28;20077;-68
2022/12/30 08:11:09;;;;;;;4.35;3.10;;;2.30;99.90;;;;;;5090995;28;20036;-68
2022/12/30 08:13:37;;;;;;;4.88;3.15;;;2.30;99.90;;;;;;5090568;28;20484;-68
2022/12/30 08:16:08;;;;;;;6.90;3.03;;;2.30;99.90;;;;;;5091769;28;20074;-67
2022/12/30 08:18:34;;;;;;;4.68;2.67;;;2.40;99.90;;;;;;5090176;28;20016;-67
2022/12/30 08:21:01;;;;;;;5.55;2.67;;;2.40;99.90;;;;;;5086453;28;20032;-68
2022/12/30 08:23:28;;;;;;;3.65;2.33;;;2.50;99.90;;;;;;5090655;28;20051;-67
2022/12/30 08:25:54;;;;;;;4.72;2.67;;;2.50;99.90;;;;;;5091705;28;20100;-68
2022/12/30 08:28:19;;;;;;;4.47;2.17;;;2.50;99.90;;;;;;5090963;28;20118;-68
2022/12/30 08:30:45;;;;;;;4.28;2.17;;;2.60;99.90;;;;;;5090808;28;20031;-67
2022/12/30 08:33:10;;;;;;;3.63;1.90;;;2.70;99.90;;;;;;5091237;28;20071;-68
2022/12/30 08:35:36;;;;;;;4.05;2.47;;;2.70;99.90;;;;;;5090833;28;20020;-68
2022/12/30 08:38:02;;;;;;;3.70;2.05;;;2.80;99.90;;;;;;5088371;28;20660;-68
2022/12/30 08:40:28;;;;;;;2.85;1.63;;;2.90;99.90;;;;;;5091250;28;20020;-67
2022/12/30 08:42:53;;;;;;;4.18;2.75;;;3.00;99.90;;;;;;5090842;28;20107;-70
2022/12/30 08:45:19;;;;;;;4.85;2.90;;;3.00;99.90;;;;;;5091546;28;20392;-68
2022/12/30 08:47:44;;;;;;;4.63;3.03;;;3.00;99.90;;;;;;5089909;28;20020;-68
2022/12/30 08:50:10;;;;;;;3.72;2.50;;;3.10;99.90;;;;;;5092824;28;20111;-69
2022/12/30 08:52:37;;;;;;;8.23;2.60;;;3.20;99.90;;;;;;5089748;28;20028;-71
2022/12/30 08:55:03;;;;;;;2.80;2.03;;;3.30;99.90;;;;;;5088472;28;20028;-70
2022/12/30 08:57:28;;;;;;;4.97;2.63;;;3.40;99.90;;;;;;5090064;28;20028;-69
2022/12/30 08:59:54;;;;;;;9.07;3.70;;;3.50;99.90;;;;;;5090612;28;20020;-68
2022/12/30 09:02:19;;;;;;;8.07;4.32;;;3.60;99.90;;;;;;5091482;28;20457;-69
2022/12/30 09:04:45;;;;;;;4.25;3.35;;;3.80;99.90;;;;;;5090003;28;20035;-70
2022/12/30 09:07:10;;;;;;;4.20;3.17;;;4.00;99.90;;;;;;5090964;28;20432;-70
2022/12/30 09:09:36;;;;;;;5.50;2.83;;;4.20;99.90;;;;;;5089753;28;20062;-71
2022/12/30 09:12:02;;;;;;;5.15;3.22;;;4.30;99.90;;;;;;5088575;28;20035;-71
2022/12/30 09:14:28;;;;;;;4.47;3.17;;;4.40;99.90;;;;;;5090112;28;20043;-72
2022/12/30 09:16:53;;;;;;;5.15;2.63;;;4.50;99.90;;;;;;5090285;28;20027;-70
2022/12/30 09:19:19;;;;;;;5.53;2.83;;;4.60;99.90;;;;;;5090260;28;20445;-71
2022/12/30 09:21:44;;;;;;;3.33;2.60;;;4.60;99.90;;;;;;5081363;28;20039;-71
2022/12/30 09:24:10;;;;;;;6.10;2.67;;;4.80;99.90;;;;;;5089706;28;20489;-72
2022/12/30 09:26:36;;;;;;;3.67;2.45;;;4.90;99.90;;;;;;5089892;28;20020;-71
2022/12/30 09:29:02;;;;;;;3.58;2.00;;;5.00;99.90;;;;;;5087786;28;20082;-71
2022/12/30 09:31:28;;;;;;;3.78;2.03;;;5.00;99.90;;;;;;5090182;28;20024;-72
2022/12/30 09:33:54;;;;;;;5.15;2.25;;;5.20;99.90;;;;;;5089974;28;20107;-70
2022/12/30 09:36:20;;;;;;;5.72;2.80;;;5.30;99.90;;;;;;5090042;28;20107;-68
2022/12/30 09:38:46;;;;;;;3.85;2.42;;;5.40;99.90;;;;;;5089733;28;20027;-68
2022/12/30 09:44:20;;;;;;;4.40;1.90;;;5.50;99.90;;;;;;5091112;28;20508;-71
2022/12/30 09:46:47;;;;;;;4.00;2.25;;;5.60;99.90;;;;;;5087397;28;20020;-72
2022/12/30 09:49:23;;;;;;;1.85;1.42;;;5.70;99.90;;;;;;5090812;28;20032;-72
2022/12/30 09:52:13;;;;;;;1.95;1.55;;;5.80;99.90;;;;;;5090524;28;20591;-72
2022/12/30 09:54:41;;;;;;;;;;;5.80;99.90;;;;;;5038299;28;20043;-69
2022/12/30 09:57:30;;;;;;;3.33;1.40;;;6.00;99.90;;;;;;5091565;28;19912;-69
2022/12/30 10:00:00;;;;;;;3.13;1.17;;;6.10;99.90;;;;;;5090791;28;20077;-68
2022/12/30 10:02:35;;;;;;;1.77;0.98;;;6.20;99.90;;;;;;5090918;28;20364;-70
2022/12/30 10:05:01;;;;;;;3.17;1.20;;;6.30;99.90;;;;;;5091391;28;20107;-70
2022/12/30 10:07:50;;;;;;;3.22;1.40;;;6.40;99.90;;;;;;5091293;28;20103;-69
2022/12/30 10:11:06;;;;;;;1.73;1.27;;;6.50;99.90;;;;;;5089902;28;20028;-70
2022/12/30 10:13:58;;;;;;;2.13;1.10;;;6.60;99.90;;;;;;5000590;28;20055;-70
2022/12/30 10:16:42;;;;;;;1.80;0.80;;;6.80;99.90;;;;;;5074965;28;20166;-70
2022/12/30 10:19:15;;;;;;;3.25;1.10;;;6.90;99.90;;;;;;5090041;28;20023;-70
2022/12/30 10:21:58;;;;;;;2.88;1.20;;;7.00;99.90;;;;;;5085695;28;20039;-71
2022/12/30 10:24:47;;;;;;;1.40;0.95;;;7.10;99.90;;;;;;5088159;28;20039;-71
2022/12/30 10:27:21;;;;;;;3.85;1.20;;;7.20;99.90;;;;;;5085921;28;20031;-71
2022/12/30 10:29:47;;;;;;;3.42;1.20;;;7.30;99.90;;;;;;5085656;28;20055;-70
2022/12/30 10:32:24;;;;;;;1.65;1.20;;;7.30;99.90;;;;;;5090340;28;20045;-72
2022/12/30 10:35:14;;;;;;;1.63;0.82;;;7.40;99.90;;;;;;5071149;28;20908;-69
2022/12/30 10:37:40;;;;;;;1.40;1.20;;;7.60;99.90;;;;;;5088947;28;20048;-70
2022/12/30 10:40:14;;;;;;;3.13;1.25;;;7.60;99.90;;;;;;5090560;28;20503;-71
2022/12/30 10:43:00;;;;;;;3.05;1.00;;;7.70;99.90;;;;;;5088703;28;20481;-72
2022/12/30 10:46:08;;;;;;;1.50;1.10;;;7.80;99.90;;;;;;5090933;28;20456;-75
2022/12/30 10:48:59;;;;;;;2.92;0.90;;;7.80;99.90;;;;;;5081428;28;20469;-72
2022/12/30 10:51:26;;;;;;;3.22;1.02;;;8.00;99.90;;;;;;5090163;28;20032;-71
2022/12/30 10:53:53;;;;;;;2.47;1.30;;;8.10;99.90;;;;;;5086381;28;20036;-71
2022/12/30 10:56:30;;;;;;;1.48;1.02;;;8.00;99.90;;;;;;5080661;28;20377;-71
2022/12/30 10:59:05;;;;;;;1.90;0.90;;;8.30;99.90;;;;;;5089353;28;20116;-71
2022/12/30 11:01:35;;;;;;;1.25;0.80;;;8.30;99.90;;;;;;5089883;28;20381;-71
2022/12/30 11:04:02;;;;;;;1.50;0.60;;;8.40;99.90;;;;;;5089962;28;20032;-72
2022/12/30 11:06:30;;;;;;;1.05;0.60;;;8.50;99.90;;;;;;5090148;28;20465;-71
2022/12/30 11:09:11;;;;;;;1.33;0.70;;;8.60;99.90;;;;;;5078613;28;20028;-72
2022/12/30 11:14:58;;;;;;;1.52;0.77;;;8.60;99.90;;;;;;5087847;28;20581;-72
2022/12/30 11:17:27;;;;;;;1.02;0.60;;;8.70;99.90;;;;;;5094659;28;20027;-71
2022/12/30 11:19:55;;;;;;;1.45;0.70;;;8.80;99.90;;;;;;5093142;28;20024;-70
2022/12/30 11:22:22;;;;;;;1.15;0.60;;;8.80;99.90;;;;;;5093794;28;20044;-71
2022/12/30 11:25:09;;;;;;;1.63;0.80;;;8.80;99.90;;;;;;5092810;28;20039;-71
2022/12/30 11:27:50;;;;;;;2.75;0.85;;;8.70;99.90;;;;;;5090180;28;20029;-71
2022/12/30 11:30:59;;;;;;;1.13;0.80;;;8.80;99.90;;;;;;5093913;28;20457;-71
2022/12/30 11:33:35;;;;;;;0.57;0.45;;;8.80;99.90;;;;;;5011141;28;20061;-70
2022/12/30 11:36:31;;;;;;;0.90;0.50;;;8.70;99.90;;;;;;5004215;28;20026;-70
2022/12/30 11:39:23;;;;;;;0.77;0.50;;;8.70;99.90;;;;;;5010793;28;20403;-69
2022/12/30 11:41:51;;;;;;;1.80;0.60;;;8.80;99.90;;;;;;5007458;28;20661;-69
2022/12/30 11:44:34;;;;;;;1.45;0.40;;;8.80;99.90;;;;;;5007687;28;20042;-70
2022/12/30 11:47:11;;;;;;;0.70;0.57;;;8.80;99.90;;;;;;5004657;28;20068;-71
2022/12/30 11:49:47;;;;;;;0.98;0.50;;;8.90;99.90;;;;;;5010248;28;20411;-71
2022/12/30 11:52:22;;;;;;;0.60;0.40;;;8.90;99.90;;;;;;5011067;28;20301;-71
2022/12/30 11:55:01;;;;;;;1.17;0.60;;;9.00;99.90;;;;;;5007097;28;20509;-69
2022/12/30 11:57:33;;;;;;;1.95;1.05;;;9.10;99.90;;;;;;5001766;28;20030;-70
2022/12/30 12:00:34;;;;;;;1.40;0.52;;;9.10;99.90;;;;;;5010701;28;20030;-70
2022/12/30 12:03:20;;;;;;;1.55;0.50;;;9.20;99.90;;;;;;5011813;28;20033;-69
2022/12/30 12:05:46;;;;;;;1.25;0.68;;;9.30;99.90;;;;;;5088492;28;20534;-70
2022/12/30 12:08:23;;;;;;;1.33;0.60;;;9.40;99.90;;;;;;5092637;28;20032;-70
2022/12/30 12:10:58;;;;;;;3.38;0.95;;;9.40;99.90;;;;;;5092457;28;20078;-70
2022/12/30 12:13:42;;;;;;;4.38;0.90;;;9.50;99.90;;;;;;5092293;28;20032;-70
2022/12/30 12:16:15;;;;;;;0.70;0.70;;;9.60;99.90;;;;;;5092934;28;20028;-70
2022/12/30 12:18:49;;;;;;;0.98;0.60;;;9.60;99.90;;;;;;5085762;28;20025;-71
2022/12/30 12:21:29;;;;;;;0.68;0.60;;;9.50;99.90;;;;;;5088613;28;20381;-71
2022/12/30 12:24:16;;;;;;;0.70;0.67;;;9.50;99.90;;;;;;5087952;28;20040;-71
2022/12/30 12:26:52;;;;;;;1.80;0.75;;;9.60;99.90;;;;;;5092046;28;20016;-71
2022/12/30 12:29:17;;;;;;;1.85;1.00;;;9.50;99.90;;;;;;5092876;28;20489;-71
2022/12/30 12:32:10;;;;;;;0.95;0.70;;;9.60;99.90;;;;;;5091729;28;20024;-71
2022/12/30 12:34:49;;;;;;;1.05;0.57;;;9.60;99.90;;;;;;5088762;28;20028;-71
2022/12/30 12:37:23;;;;;;;0.50;0.45;;;9.60;99.90;;;;;;5085551;28;20024;-71
2022/12/30 12:40:07;;;;;;;2.92;0.90;;;9.50;99.90;;;;;;5091503;28;20602;-70
2022/12/30 12:42:57;;;;;;;1.48;0.85;;;9.50;99.90;;;;;;5087999;28;20095;-70
2022/12/30 12:45:55;;;;;;;1.58;0.70;;;9.50;99.90;;;;;;5092689;28;20024;-70
2022/12/30 12:48:35;;;;;;;1.60;1.02;;;9.50;99.90;;;;;;5083106;28;20056;-70
2022/12/30 12:51:27;;;;;;;1.90;0.70;;;9.50;99.90;;;;;;5092394;28;20123;-71
2022/12/30 12:54:05;;;;;;;3.13;0.57;;;9.50;99.90;;;;;;5080005;28;20405;-71
2022/12/30 12:56:42;;;;;;;3.50;1.35;;;9.50;99.90;;;;;;5091960;28;20099;-73
2022/12/30 12:59:36;;;;;;;1.60;0.95;;;9.60;99.90;;;;;;5091607;28;20466;-72
2022/12/30 13:02:23;;;;;;;1.77;1.10;;;9.60;99.90;;;;;;5092210;28;20395;-71
2022/12/30 13:05:28;;;;;;;2.75;1.15;;;9.50;99.90;;;;;;5072745;28;20588;-71
2022/12/30 13:08:12;;;;;;;1.23;0.85;;;9.50;99.90;;;;;;5091610;28;20102;-70
2022/12/30 13:10:56;;;;;;;1.10;0.73;;;9.40;99.90;;;;;;5086250;28;20063;-69
2022/12/30 13:13:35;;;;;;;1.85;0.73;;;9.40;99.90;;;;;;5091322;28;20114;-69
2022/12/30 13:16:12;;;;;;;1.30;0.93;;;9.40;99.90;;;;;;5091970;28;20073;-72
2022/12/30 13:18:42;;;;;;;2.45;0.80;;;9.30;99.90;;;;;;5091162;28;20035;-70
2022/12/30 13:21:10;;;;;;;;;;;9.30;99.90;;;;;;5092513;28;20038;-71
2022/12/30 13:23:47;;;;;;;2.80;1.25;;;9.30;99.90;;;;;;5090016;28;19920;-70
2022/12/30 13:26:12;;;;;;;1.58;1.13;;;9.30;99.90;;;;;;5090982;28;20405;-71
2022/12/30 13:28:39;;;;;;;1.90;0.80;;;9.30;99.90;;;;;;5087393;28;20023;-71
2022/12/30 13:31:22;;;;;;;1.88;1.25;;;9.40;99.90;;;;;;5091966;28;20028;-70
2022/12/30 13:34:04;;;;;;;1.02;0.90;;;9.40;99.90;;;;;;5090496;28;20636;-70
2022/12/30 13:36:56;;;;;;;1.85;1.00;;;9.40;99.90;;;;;;5089856;28;20028;-71
2022/12/30 13:39:46;;;;;;;1.77;0.80;;;9.40;99.90;;;;;;5044943;28;20056;-72
2022/12/30 13:42:23;;;;;;;1.30;0.80;;;9.50;99.90;;;;;;5091324;28;20055;-69
2022/12/30 13:44:49;;;;;;;2.78;0.50;;;9.40;99.90;;;;;;5089997;28;20024;-67
2022/12/30 13:47:24;;;;;;;1.85;0.60;;;9.40;99.90;;;;;;5091546;28;20028;-67
2022/12/30 13:49:49;;;;;;;2.70;1.10;;;9.50;99.90;;;;;;5090398;28;20027;-67
2022/12/30 13:52:24;;;;;;;1.83;0.90;;;9.50;99.90;;;;;;5090821;28;20024;-68
2022/12/30 13:54:52;;;;;;;1.63;0.82;;;9.40;99.90;;;;;;5089823;28;20063;-67
2022/12/30 13:57:49;;;;;;;2.38;0.80;;;9.50;99.90;;;;;;5090832;28;20114;-67
2022/12/30 14:00:41;;;;;;;1.90;0.77;;;9.50;99.90;;;;;;5069595;28;20075;-68
2022/12/30 14:03:25;;;;;;;3.83;1.00;;;9.50;99.90;;;;;;5081938;28;20071;-67
2022/12/30 14:05:59;;;;;;;1.83;0.80;;;9.40;99.90;;;;;;5086657;28;20024;-68
2022/12/30 14:08:24;;;;;;;2.47;0.90;;;9.40;99.90;;;;;;5087553;28;20034;-68
2022/12/30 14:10:53;;;;;;;2.35;1.20;;;9.30;99.90;;;;;;5090044;28;20465;-67
2022/12/30 14:13:29;;;;;;;1.27;0.90;;;9.20;99.90;;;;;;5090510;28;20082;-67
2022/12/30 14:16:00;;;;;;;1.70;1.10;;;9.20;99.90;;;;;;5091084;28;20020;-67
2022/12/30 14:18:45;;;;;;;1.73;1.00;;;9.20;99.90;;;;;;5084966;28;20024;-67